sensor_id;sensor_type;location;lat;lon;timestamp;P1;durP1;ratioP1;P2;durP2;ratioP2
61096;SDS011;46977;50.936;6.908;2023-02-22T00:02:29;40.60;;;11.98;;
61096;SDS011;46977;50.936;6.908;2023-02-22T00:05:33;58.67;;;14.90;;
61096;SDS011;46977;50.936;6.908;2023-02-22T00:08:35;41.40;;;11.15;;
61096;SDS011;46977;50.936;6.908;2023-02-22T00:11:38;51.72;;;13.75;;
61096;SDS011;46977;50.936;6.908;2023-02-22T00:14:47;24.40;;;10.27;;
61096;SDS011;46977;50.936;6.908;2023-02-22T00:17:51;16.30;;;9.43;;
61096;SDS011;46977;50.936;6.908;2023-02-22T00:20:54;41.13;;;11.63;;
61096;SDS011;46977;50.936;6.908;2023-02-22T00:23:57;15.50;;;8.80;;
61096;SDS011;46977;50.936;6.908;2023-02-22T00:26:59;19.50;;;9.80;;
61096;SDS011;46977;50.936;6.908;2023-02-22T00:30:02;14.48;;;7.53;;
61096;SDS011;46977;50.936;6.908;2023-02-22T00:33:07;44.88;;;10.80;;
61096;SDS011;46977;50.936;6.908;2023-02-22T00:36:10;14.07;;;8.18;;
61096;SDS011;46977;50.936;6.908;2023-02-22T00:39:13;41.83;;;9.02;;
61096;SDS011;46977;50.936;6.908;2023-02-22T00:42:16;16.75;;;8.43;;
61096;SDS011;46977;50.936;6.908;2023-02-22T00:45:20;41.10;;;9.93;;
61096;SDS011;46977;50.936;6.908;2023-02-22T00:48:25;52.38;;;10.23;;
61096;SDS011;46977;50.936;6.908;2023-02-22T00:51:27;32.28;;;9.45;;
61096;SDS011;46977;50.936;6.908;2023-02-22T00:54:30;30.02;;;8.35;;
61096;SDS011;46977;50.936;6.908;2023-02-22T00:57:32;31.25;;;7.90;;
61096;SDS011;46977;50.936;6.908;2023-02-22T01:00:38;79.20;;;15.45;;
61096;SDS011;46977;50.936;6.908;2023-02-22T01:03:43;14.50;;;7.82;;
61096;SDS011;46977;50.936;6.908;2023-02-22T01:06:46;17.13;;;7.18;;
61096;SDS011;46977;50.936;6.908;2023-02-22T01:09:48;37.55;;;8.82;;
61096;SDS011;46977;50.936;6.908;2023-02-22T01:12:51;33.13;;;8.95;;
61096;SDS011;46977;50.936;6.908;2023-02-22T01:15:53;28.13;;;9.57;;
61096;SDS011;46977;50.936;6.908;2023-02-22T01:18:58;14.75;;;7.93;;
61096;SDS011;46977;50.936;6.908;2023-02-22T01:22:03;14.52;;;7.90;;
61096;SDS011;46977;50.936;6.908;2023-02-22T01:25:06;30.60;;;9.32;;
61096;SDS011;46977;50.936;6.908;2023-02-22T01:28:09;14.75;;;6.95;;
61096;SDS011;46977;50.936;6.908;2023-02-22T01:31:12;19.20;;;8.20;;
61096;SDS011;46977;50.936;6.908;2023-02-22T01:34:16;24.63;;;9.60;;
61096;SDS011;46977;50.936;6.908;2023-02-22T01:37:18;33.90;;;9.60;;
61096;SDS011;46977;50.936;6.908;2023-02-22T01:40:22;32.00;;;9.65;;
61096;SDS011;46977;50.936;6.908;2023-02-22T01:43:27;18.80;;;10.10;;
61096;SDS011;46977;50.936;6.908;2023-02-22T01:46:33;27.90;;;10.25;;
61096;SDS011;46977;50.936;6.908;2023-02-22T01:49:37;28.15;;;9.65;;
61096;SDS011;46977;50.936;6.908;2023-02-22T01:52:42;30.58;;;10.77;;
61096;SDS011;46977;50.936;6.908;2023-02-22T01:55:45;37.13;;;10.55;;
61096;SDS011;46977;50.936;6.908;2023-02-22T01:58:49;47.80;;;11.80;;
61096;SDS011;46977;50.936;6.908;2023-02-22T02:01:53;34.75;;;10.55;;
61096;SDS011;46977;50.936;6.908;2023-02-22T02:05:00;37.70;;;11.50;;
61096;SDS011;46977;50.936;6.908;2023-02-22T02:08:04;27.60;;;9.82;;
61096;SDS011;46977;50.936;6.908;2023-02-22T02:11:17;20.88;;;9.15;;
61096;SDS011;46977;50.936;6.908;2023-02-22T02:14:21;33.13;;;10.82;;
61096;SDS011;46977;50.936;6.908;2023-02-22T02:17:24;28.80;;;10.90;;
61096;SDS011;46977;50.936;6.908;2023-02-22T02:20:28;19.60;;;10.13;;
61096;SDS011;46977;50.936;6.908;2023-02-22T02:23:58;19.58;;;10.63;;
61096;SDS011;46977;50.936;6.908;2023-02-22T02:27:11;23.90;;;10.38;;
61096;SDS011;46977;50.936;6.908;2023-02-22T02:33:40;48.42;;;11.90;;
61096;SDS011;46977;50.936;6.908;2023-02-22T02:36:45;20.08;;;9.77;;
61096;SDS011;46977;50.936;6.908;2023-02-22T02:39:55;29.75;;;10.98;;
61096;SDS011;46977;50.936;6.908;2023-02-22T02:43:00;20.88;;;10.40;;
61096;SDS011;46977;50.936;6.908;2023-02-22T02:46:17;38.85;;;11.70;;
61096;SDS011;46977;50.936;6.908;2023-02-22T02:49:25;34.85;;;10.90;;
61096;SDS011;46977;50.936;6.908;2023-02-22T02:52:30;21.63;;;9.63;;
61096;SDS011;46977;50.936;6.908;2023-02-22T02:55:34;29.20;;;11.15;;
61096;SDS011;46977;50.936;6.908;2023-02-22T02:58:42;34.75;;;11.13;;
61096;SDS011;46977;50.936;6.908;2023-02-22T03:01:52;23.23;;;9.70;;
61096;SDS011;46977;50.936;6.908;2023-02-22T03:05:14;36.88;;;10.60;;
61096;SDS011;46977;50.936;6.908;2023-02-22T03:08:22;30.55;;;9.93;;
61096;SDS011;46977;50.936;6.908;2023-02-22T03:11:30;19.00;;;9.80;;
61096;SDS011;46977;50.936;6.908;2023-02-22T03:14:39;22.83;;;10.27;;
61096;SDS011;46977;50.936;6.908;2023-02-22T03:17:45;26.30;;;10.10;;
61096;SDS011;46977;50.936;6.908;2023-02-22T03:20:54;47.92;;;11.20;;
61096;SDS011;46977;50.936;6.908;2023-02-22T03:24:05;27.33;;;10.20;;
61096;SDS011;46977;50.936;6.908;2023-02-22T03:27:08;27.77;;;9.35;;
61096;SDS011;46977;50.936;6.908;2023-02-22T03:30:20;18.33;;;9.60;;
61096;SDS011;46977;50.936;6.908;2023-02-22T03:33:26;36.92;;;11.20;;
61096;SDS011;46977;50.936;6.908;2023-02-22T03:36:37;19.98;;;9.70;;
61096;SDS011;46977;50.936;6.908;2023-02-22T03:39:42;25.52;;;9.43;;
61096;SDS011;46977;50.936;6.908;2023-02-22T03:42:46;18.75;;;9.05;;
61096;SDS011;46977;50.936;6.908;2023-02-22T03:45:50;14.68;;;9.43;;
61096;SDS011;46977;50.936;6.908;2023-02-22T03:48:55;15.48;;;9.00;;
61096;SDS011;46977;50.936;6.908;2023-02-22T03:52:06;12.93;;;8.60;;
61096;SDS011;46977;50.936;6.908;2023-02-22T03:55:11;13.82;;;8.45;;
61096;SDS011;46977;50.936;6.908;2023-02-22T03:58:14;13.15;;;7.68;;
61096;SDS011;46977;50.936;6.908;2023-02-22T04:01:16;12.18;;;8.90;;
61096;SDS011;46977;50.936;6.908;2023-02-22T04:04:20;12.73;;;9.20;;
61096;SDS011;46977;50.936;6.908;2023-02-22T04:07:26;13.30;;;8.40;;
61096;SDS011;46977;50.936;6.908;2023-02-22T04:10:29;15.77;;;7.07;;
61096;SDS011;46977;50.936;6.908;2023-02-22T04:13:32;7.85;;;7.03;;
61096;SDS011;46977;50.936;6.908;2023-02-22T04:16:34;7.90;;;6.43;;
61096;SDS011;46977;50.936;6.908;2023-02-22T04:19:40;8.07;;;7.15;;
61096;SDS011;46977;50.936;6.908;2023-02-22T04:22:48;9.52;;;8.15;;
61096;SDS011;46977;50.936;6.908;2023-02-22T04:25:51;8.68;;;6.60;;
61096;SDS011;46977;50.936;6.908;2023-02-22T04:28:54;8.82;;;7.50;;
61096;SDS011;46977;50.936;6.908;2023-02-22T04:31:58;9.73;;;7.30;;
61096;SDS011;46977;50.936;6.908;2023-02-22T04:35:01;7.75;;;6.78;;
61096;SDS011;46977;50.936;6.908;2023-02-22T04:38:06;7.22;;;6.53;;
61096;SDS011;46977;50.936;6.908;2023-02-22T04:41:13;8.18;;;7.13;;
61096;SDS011;46977;50.936;6.908;2023-02-22T04:44:16;8.70;;;6.55;;
61096;SDS011;46977;50.936;6.908;2023-02-22T04:47:18;8.50;;;7.03;;
61096;SDS011;46977;50.936;6.908;2023-02-22T04:50:21;7.50;;;6.80;;
61096;SDS011;46977;50.936;6.908;2023-02-22T04:53:24;10.57;;;6.65;;
61096;SDS011;46977;50.936;6.908;2023-02-22T04:56:27;7.10;;;6.22;;
61096;SDS011;46977;50.936;6.908;2023-02-22T04:59:29;8.25;;;7.18;;
61096;SDS011;46977;50.936;6.908;2023-02-22T05:02:36;7.82;;;6.53;;
61096;SDS011;46977;50.936;6.908;2023-02-22T05:05:39;7.22;;;6.53;;
61096;SDS011;46977;50.936;6.908;2023-02-22T05:08:43;8.32;;;6.75;;
61096;SDS011;46977;50.936;6.908;2023-02-22T05:11:45;8.82;;;6.88;;
61096;SDS011;46977;50.936;6.908;2023-02-22T05:14:47;10.05;;;6.93;;
61096;SDS011;46977;50.936;6.908;2023-02-22T05:17:50;9.20;;;6.43;;
61096;SDS011;46977;50.936;6.908;2023-02-22T05:20:52;7.30;;;6.45;;
61096;SDS011;46977;50.936;6.908;2023-02-22T05:23:56;7.78;;;6.43;;
61096;SDS011;46977;50.936;6.908;2023-02-22T05:26:59;7.22;;;6.15;;
61096;SDS011;46977;50.936;6.908;2023-02-22T05:30:01;6.97;;;6.15;;
61096;SDS011;46977;50.936;6.908;2023-02-22T05:33:04;7.07;;;6.38;;
61096;SDS011;46977;50.936;6.908;2023-02-22T05:36:07;7.90;;;5.78;;
61096;SDS011;46977;50.936;6.908;2023-02-22T05:39:12;6.80;;;6.10;;
61096;SDS011;46977;50.936;6.908;2023-02-22T05:42:14;7.13;;;5.72;;
61096;SDS011;46977;50.936;6.908;2023-02-22T05:45:17;7.05;;;6.45;;
61096;SDS011;46977;50.936;6.908;2023-02-22T05:48:20;7.10;;;5.93;;
61096;SDS011;46977;50.936;6.908;2023-02-22T05:51:23;8.98;;;6.30;;
61096;SDS011;46977;50.936;6.908;2023-02-22T05:54:27;7.88;;;6.68;;
61096;SDS011;46977;50.936;6.908;2023-02-22T05:57:29;8.55;;;6.28;;
61096;SDS011;46977;50.936;6.908;2023-02-22T06:00:32;7.22;;;5.78;;
61096;SDS011;46977;50.936;6.908;2023-02-22T06:03:34;6.93;;;5.63;;
61096;SDS011;46977;50.936;6.908;2023-02-22T06:06:36;5.15;;;4.57;;
61096;SDS011;46977;50.936;6.908;2023-02-22T06:09:40;6.15;;;5.55;;
61096;SDS011;46977;50.936;6.908;2023-02-22T06:12:42;6.05;;;5.43;;
61096;SDS011;46977;50.936;6.908;2023-02-22T06:15:45;7.63;;;5.80;;
61096;SDS011;46977;50.936;6.908;2023-02-22T06:18:47;5.90;;;4.75;;
61096;SDS011;46977;50.936;6.908;2023-02-22T06:21:50;5.55;;;5.05;;
61096;SDS011;46977;50.936;6.908;2023-02-22T06:24:54;6.05;;;5.43;;
61096;SDS011;46977;50.936;6.908;2023-02-22T06:27:57;5.75;;;5.05;;
61096;SDS011;46977;50.936;6.908;2023-02-22T06:30:59;6.40;;;5.50;;
61096;SDS011;46977;50.936;6.908;2023-02-22T06:34:01;7.10;;;5.60;;
61096;SDS011;46977;50.936;6.908;2023-02-22T06:37:04;6.60;;;5.95;;
61096;SDS011;46977;50.936;6.908;2023-02-22T06:40:08;6.30;;;5.70;;
61096;SDS011;46977;50.936;6.908;2023-02-22T06:43:12;6.25;;;5.70;;
61096;SDS011;46977;50.936;6.908;2023-02-22T06:46:14;5.97;;;5.38;;
61096;SDS011;46977;50.936;6.908;2023-02-22T06:49:17;6.25;;;5.65;;
61096;SDS011;46977;50.936;6.908;2023-02-22T06:52:20;5.90;;;5.00;;
61096;SDS011;46977;50.936;6.908;2023-02-22T06:55:25;7.25;;;5.40;;
61096;SDS011;46977;50.936;6.908;2023-02-22T06:58:28;5.70;;;4.97;;
61096;SDS011;46977;50.936;6.908;2023-02-22T07:01:32;7.65;;;5.28;;
61096;SDS011;46977;50.936;6.908;2023-02-22T07:04:34;6.68;;;4.97;;
61096;SDS011;46977;50.936;6.908;2023-02-22T07:07:38;8.85;;;6.40;;
61096;SDS011;46977;50.936;6.908;2023-02-22T07:10:42;7.03;;;5.00;;
61096;SDS011;46977;50.936;6.908;2023-02-22T07:13:44;5.82;;;5.05;;
61096;SDS011;46977;50.936;6.908;2023-02-22T07:16:46;7.25;;;5.03;;
61096;SDS011;46977;50.936;6.908;2023-02-22T07:19:49;7.30;;;5.22;;
61096;SDS011;46977;50.936;6.908;2023-02-22T07:22:51;5.45;;;4.35;;
61096;SDS011;46977;50.936;6.908;2023-02-22T07:25:55;5.97;;;3.78;;
61096;SDS011;46977;50.936;6.908;2023-02-22T07:29:00;5.70;;;5.00;;
61096;SDS011;46977;50.936;6.908;2023-02-22T07:32:02;6.05;;;4.40;;
61096;SDS011;46977;50.936;6.908;2023-02-22T07:35:05;5.70;;;5.15;;
61096;SDS011;46977;50.936;6.908;2023-02-22T07:38:11;6.57;;;5.00;;
61096;SDS011;46977;50.936;6.908;2023-02-22T07:41:16;7.68;;;4.75;;
61096;SDS011;46977;50.936;6.908;2023-02-22T07:44:19;5.57;;;4.97;;
61096;SDS011;46977;50.936;6.908;2023-02-22T07:47:21;6.00;;;5.00;;
61096;SDS011;46977;50.936;6.908;2023-02-22T07:50:24;6.28;;;4.82;;
61096;SDS011;46977;50.936;6.908;2023-02-22T07:53:28;5.70;;;4.88;;
61096;SDS011;46977;50.936;6.908;2023-02-22T07:56:33;7.65;;;4.95;;
61096;SDS011;46977;50.936;6.908;2023-02-22T07:59:35;4.60;;;4.20;;
61096;SDS011;46977;50.936;6.908;2023-02-22T08:02:38;5.35;;;4.85;;
61096;SDS011;46977;50.936;6.908;2023-02-22T08:05:41;4.45;;;4.10;;
61096;SDS011;46977;50.936;6.908;2023-02-22T08:08:45;5.00;;;4.50;;
61096;SDS011;46977;50.936;6.908;2023-02-22T08:11:49;6.30;;;4.53;;
61096;SDS011;46977;50.936;6.908;2023-02-22T08:14:51;5.13;;;3.88;;
61096;SDS011;46977;50.936;6.908;2023-02-22T08:17:54;4.13;;;3.80;;
61096;SDS011;46977;50.936;6.908;2023-02-22T08:20:56;4.38;;;4.07;;
61096;SDS011;46977;50.936;6.908;2023-02-22T08:23:59;6.40;;;4.35;;
61096;SDS011;46977;50.936;6.908;2023-02-22T08:27:03;3.95;;;3.60;;
61096;SDS011;46977;50.936;6.908;2023-02-22T08:30:06;4.35;;;3.75;;
61096;SDS011;46977;50.936;6.908;2023-02-22T08:33:09;4.93;;;4.53;;
61096;SDS011;46977;50.936;6.908;2023-02-22T08:36:15;6.43;;;4.57;;
61096;SDS011;46977;50.936;6.908;2023-02-22T08:39:19;6.97;;;4.78;;
61096;SDS011;46977;50.936;6.908;2023-02-22T08:42:23;5.35;;;4.15;;
61096;SDS011;46977;50.936;6.908;2023-02-22T08:45:25;6.95;;;3.97;;
61096;SDS011;46977;50.936;6.908;2023-02-22T08:48:28;4.93;;;4.32;;
61096;SDS011;46977;50.936;6.908;2023-02-22T08:51:32;5.30;;;4.43;;
61096;SDS011;46977;50.936;6.908;2023-02-22T08:54:35;5.80;;;5.22;;
61096;SDS011;46977;50.936;6.908;2023-02-22T08:57:39;6.38;;;3.92;;
61096;SDS011;46977;50.936;6.908;2023-02-22T09:00:41;5.40;;;4.82;;
61096;SDS011;46977;50.936;6.908;2023-02-22T09:03:46;5.15;;;4.65;;
61096;SDS011;46977;50.936;6.908;2023-02-22T09:06:49;5.40;;;4.47;;
61096;SDS011;46977;50.936;6.908;2023-02-22T09:09:52;6.25;;;5.65;;
61096;SDS011;46977;50.936;6.908;2023-02-22T09:12:56;5.55;;;5.05;;
61096;SDS011;46977;50.936;6.908;2023-02-22T09:16:01;5.75;;;5.10;;
61096;SDS011;46977;50.936;6.908;2023-02-22T09:19:04;5.72;;;5.22;;
61096;SDS011;46977;50.936;6.908;2023-02-22T09:22:06;6.65;;;5.22;;
61096;SDS011;46977;50.936;6.908;2023-02-22T09:25:08;6.10;;;5.45;;
61096;SDS011;46977;50.936;6.908;2023-02-22T09:28:19;7.00;;;5.70;;
61096;SDS011;46977;50.936;6.908;2023-02-22T09:31:21;6.90;;;5.40;;
61096;SDS011;46977;50.936;6.908;2023-02-22T09:34:25;7.18;;;5.75;;
61096;SDS011;46977;50.936;6.908;2023-02-22T09:37:30;5.53;;;5.03;;
61096;SDS011;46977;50.936;6.908;2023-02-22T09:40:33;7.18;;;5.45;;
61096;SDS011;46977;50.936;6.908;2023-02-22T09:43:44;6.10;;;5.22;;
61096;SDS011;46977;50.936;6.908;2023-02-22T09:46:50;5.65;;;5.15;;
61096;SDS011;46977;50.936;6.908;2023-02-22T09:49:55;7.00;;;5.28;;
61096;SDS011;46977;50.936;6.908;2023-02-22T09:53:01;6.32;;;5.25;;
61096;SDS011;46977;50.936;6.908;2023-02-22T09:56:07;6.50;;;5.30;;
61096;SDS011;46977;50.936;6.908;2023-02-22T09:59:14;7.32;;;5.10;;
61096;SDS011;46977;50.936;6.908;2023-02-22T10:02:22;6.15;;;4.90;;
61096;SDS011;46977;50.936;6.908;2023-02-22T10:05:28;5.32;;;4.88;;
61096;SDS011;46977;50.936;6.908;2023-02-22T10:08:34;5.80;;;5.20;;
61096;SDS011;46977;50.936;6.908;2023-02-22T10:11:44;6.55;;;5.85;;
61096;SDS011;46977;50.936;6.908;2023-02-22T10:14:59;5.65;;;4.97;;
61096;SDS011;46977;50.936;6.908;2023-02-22T10:22:02;5.93;;;5.38;;
61096;SDS011;46977;50.936;6.908;2023-02-22T10:25:16;8.25;;;5.50;;
61096;SDS011;46977;50.936;6.908;2023-02-22T10:28:20;6.18;;;4.70;;
61096;SDS011;46977;50.936;6.908;2023-02-22T10:31:27;6.95;;;5.25;;
61096;SDS011;46977;50.936;6.908;2023-02-22T10:34:35;4.82;;;4.43;;
61096;SDS011;46977;50.936;6.908;2023-02-22T10:37:39;7.32;;;5.20;;
61096;SDS011;46977;50.936;6.908;2023-02-22T10:40:42;6.53;;;4.97;;
61096;SDS011;46977;50.936;6.908;2023-02-22T10:43:47;4.68;;;4.28;;
61096;SDS011;46977;50.936;6.908;2023-02-22T10:46:51;7.50;;;5.43;;
61096;SDS011;46977;50.936;6.908;2023-02-22T10:49:55;6.18;;;4.97;;
61096;SDS011;46977;50.936;6.908;2023-02-22T10:52:59;4.68;;;4.25;;
61096;SDS011;46977;50.936;6.908;2023-02-22T10:56:05;9.05;;;4.93;;
61096;SDS011;46977;50.936;6.908;2023-02-22T10:59:11;5.35;;;4.80;;
61096;SDS011;46977;50.936;6.908;2023-02-22T11:02:30;6.00;;;4.65;;
61096;SDS011;46977;50.936;6.908;2023-02-22T11:05:34;5.00;;;4.10;;
61096;SDS011;46977;50.936;6.908;2023-02-22T11:08:38;5.43;;;4.88;;
61096;SDS011;46977;50.936;6.908;2023-02-22T11:11:43;4.32;;;4.00;;
61096;SDS011;46977;50.936;6.908;2023-02-22T11:14:47;4.57;;;4.18;;
61096;SDS011;46977;50.936;6.908;2023-02-22T11:17:51;4.30;;;3.70;;
61096;SDS011;46977;50.936;6.908;2023-02-22T11:21:00;6.25;;;3.75;;
61096;SDS011;46977;50.936;6.908;2023-02-22T11:24:05;4.38;;;3.67;;
61096;SDS011;46977;50.936;6.908;2023-02-22T11:27:19;3.95;;;3.63;;
61096;SDS011;46977;50.936;6.908;2023-02-22T11:30:26;3.92;;;3.58;;
61096;SDS011;46977;50.936;6.908;2023-02-22T11:33:31;4.50;;;3.40;;
61096;SDS011;46977;50.936;6.908;2023-02-22T11:36:35;3.95;;;3.65;;
61096;SDS011;46977;50.936;6.908;2023-02-22T11:39:41;4.45;;;3.38;;
61096;SDS011;46977;50.936;6.908;2023-02-22T11:42:44;4.68;;;3.05;;
61096;SDS011;46977;50.936;6.908;2023-02-22T11:45:54;4.10;;;3.70;;
61096;SDS011;46977;50.936;6.908;2023-02-22T11:49:04;3.28;;;3.08;;
61096;SDS011;46977;50.936;6.908;2023-02-22T11:52:13;3.50;;;3.20;;
61096;SDS011;46977;50.936;6.908;2023-02-22T11:55:20;3.67;;;2.55;;
61096;SDS011;46977;50.936;6.908;2023-02-22T11:58:43;2.90;;;2.60;;
61096;SDS011;46977;50.936;6.908;2023-02-22T12:01:49;5.03;;;2.60;;
61096;SDS011;46977;50.936;6.908;2023-02-22T12:04:57;3.83;;;2.60;;
61096;SDS011;46977;50.936;6.908;2023-02-22T12:08:16;4.20;;;2.50;;
61096;SDS011;46977;50.936;6.908;2023-02-22T12:11:22;5.30;;;2.70;;
61096;SDS011;46977;50.936;6.908;2023-02-22T12:14:29;2.40;;;2.20;;
61096;SDS011;46977;50.936;6.908;2023-02-22T12:17:38;3.92;;;2.63;;
61096;SDS011;46977;50.936;6.908;2023-02-22T12:21:02;3.17;;;2.30;;
61096;SDS011;46977;50.936;6.908;2023-02-22T12:24:09;2.47;;;2.00;;
61096;SDS011;46977;50.936;6.908;2023-02-22T12:27:16;2.47;;;2.28;;
61096;SDS011;46977;50.936;6.908;2023-02-22T12:30:21;2.92;;;2.47;;
61096;SDS011;46977;50.936;6.908;2023-02-22T12:33:26;5.57;;;2.40;;
61096;SDS011;46977;50.936;6.908;2023-02-22T12:36:33;6.35;;;2.40;;
61096;SDS011;46977;50.936;6.908;2023-02-22T12:39:41;4.20;;;2.60;;
61096;SDS011;46977;50.936;6.908;2023-02-22T12:42:56;2.25;;;2.05;;
61096;SDS011;46977;50.936;6.908;2023-02-22T12:46:01;2.80;;;2.15;;
61096;SDS011;46977;50.936;6.908;2023-02-22T12:49:09;2.33;;;2.22;;
61096;SDS011;46977;50.936;6.908;2023-02-22T12:52:19;2.35;;;1.98;;
61096;SDS011;46977;50.936;6.908;2023-02-22T12:55:30;3.13;;;2.03;;
61096;SDS011;46977;50.936;6.908;2023-02-22T12:58:35;2.60;;;2.30;;
61096;SDS011;46977;50.936;6.908;2023-02-22T13:01:42;5.05;;;2.53;;
61096;SDS011;46977;50.936;6.908;2023-02-22T13:04:45;5.28;;;2.28;;
61096;SDS011;46977;50.936;6.908;2023-02-22T13:07:51;2.00;;;1.77;;
61096;SDS011;46977;50.936;6.908;2023-02-22T13:11:03;3.15;;;1.90;;
61096;SDS011;46977;50.936;6.908;2023-02-22T13:14:17;5.60;;;2.10;;
61096;SDS011;46977;50.936;6.908;2023-02-22T13:17:32;4.20;;;2.22;;
61096;SDS011;46977;50.936;6.908;2023-02-22T13:20:39;2.30;;;2.10;;
61096;SDS011;46977;50.936;6.908;2023-02-22T13:23:46;2.10;;;1.67;;
61096;SDS011;46977;50.936;6.908;2023-02-22T13:26:54;3.03;;;2.05;;
61096;SDS011;46977;50.936;6.908;2023-02-22T13:30:00;2.42;;;2.17;;
61096;SDS011;46977;50.936;6.908;2023-02-22T13:33:18;3.38;;;2.08;;
61096;SDS011;46977;50.936;6.908;2023-02-22T13:36:35;4.95;;;2.42;;
61096;SDS011;46977;50.936;6.908;2023-02-22T13:39:53;2.35;;;2.15;;
61096;SDS011;46977;50.936;6.908;2023-02-22T13:43:17;2.33;;;2.13;;
61096;SDS011;46977;50.936;6.908;2023-02-22T13:46:31;3.20;;;1.63;;
61096;SDS011;46977;50.936;6.908;2023-02-22T13:49:46;2.83;;;2.22;;
61096;SDS011;46977;50.936;6.908;2023-02-22T13:53:02;3.17;;;2.78;;
61096;SDS011;46977;50.936;6.908;2023-02-22T13:56:07;2.60;;;2.08;;
61096;SDS011;46977;50.936;6.908;2023-02-22T13:59:20;2.30;;;2.20;;
61096;SDS011;46977;50.936;6.908;2023-02-22T14:02:32;2.17;;;1.98;;
61096;SDS011;46977;50.936;6.908;2023-02-22T14:05:47;2.30;;;2.10;;
61096;SDS011;46977;50.936;6.908;2023-02-22T14:08:51;3.13;;;2.28;;
61096;SDS011;46977;50.936;6.908;2023-02-22T14:11:55;2.85;;;2.30;;
61096;SDS011;46977;50.936;6.908;2023-02-22T14:15:07;2.55;;;2.35;;
61096;SDS011;46977;50.936;6.908;2023-02-22T14:18:30;2.80;;;1.83;;
61096;SDS011;46977;50.936;6.908;2023-02-22T14:21:37;2.13;;;1.92;;
61096;SDS011;46977;50.936;6.908;2023-02-22T14:24:56;3.22;;;1.98;;
61096;SDS011;46977;50.936;6.908;2023-02-22T14:28:01;2.95;;;2.00;;
61096;SDS011;46977;50.936;6.908;2023-02-22T14:31:05;4.43;;;2.35;;
61096;SDS011;46977;50.936;6.908;2023-02-22T14:34:09;3.22;;;2.42;;
61096;SDS011;46977;50.936;6.908;2023-02-22T14:37:13;2.42;;;2.28;;
61096;SDS011;46977;50.936;6.908;2023-02-22T14:40:20;2.65;;;2.35;;
61096;SDS011;46977;50.936;6.908;2023-02-22T14:43:28;5.03;;;2.60;;
61096;SDS011;46977;50.936;6.908;2023-02-22T14:46:31;2.70;;;2.30;;
61096;SDS011;46977;50.936;6.908;2023-02-22T14:49:38;2.85;;;2.55;;
61096;SDS011;46977;50.936;6.908;2023-02-22T14:52:42;2.38;;;2.15;;
61096;SDS011;46977;50.936;6.908;2023-02-22T14:55:48;3.22;;;2.55;;
61096;SDS011;46977;50.936;6.908;2023-02-22T14:58:56;4.05;;;2.30;;
61096;SDS011;46977;50.936;6.908;2023-02-22T15:02:09;3.30;;;2.17;;
61096;SDS011;46977;50.936;6.908;2023-02-22T15:05:14;2.28;;;2.08;;
61096;SDS011;46977;50.936;6.908;2023-02-22T15:08:17;2.72;;;2.53;;
61096;SDS011;46977;50.936;6.908;2023-02-22T15:14:36;10.05;;;2.22;;
61096;SDS011;46977;50.936;6.908;2023-02-22T15:17:39;5.32;;;1.95;;
61096;SDS011;46977;50.936;6.908;2023-02-22T15:20:42;3.20;;;2.30;;
61096;SDS011;46977;50.936;6.908;2023-02-22T15:23:50;2.15;;;2.05;;
61096;SDS011;46977;50.936;6.908;2023-02-22T15:27:02;2.30;;;2.10;;
61096;SDS011;46977;50.936;6.908;2023-02-22T15:30:14;4.25;;;2.00;;
61096;SDS011;46977;50.936;6.908;2023-02-22T15:33:19;4.15;;;2.10;;
61096;SDS011;46977;50.936;6.908;2023-02-22T15:36:26;2.30;;;2.10;;
61096;SDS011;46977;50.936;6.908;2023-02-22T15:39:32;2.60;;;1.90;;
61096;SDS011;46977;50.936;6.908;2023-02-22T15:42:41;3.10;;;2.13;;
61096;SDS011;46977;50.936;6.908;2023-02-22T15:45:45;2.72;;;2.53;;
61096;SDS011;46977;50.936;6.908;2023-02-22T15:49:02;3.00;;;2.78;;
61096;SDS011;46977;50.936;6.908;2023-02-22T15:52:06;3.05;;;1.85;;
61096;SDS011;46977;50.936;6.908;2023-02-22T15:55:10;2.33;;;2.13;;
61096;SDS011;46977;50.936;6.908;2023-02-22T15:58:18;2.25;;;2.05;;
61096;SDS011;46977;50.936;6.908;2023-02-22T16:01:28;2.67;;;2.10;;
61096;SDS011;46977;50.936;6.908;2023-02-22T16:04:31;2.28;;;1.70;;
61096;SDS011;46977;50.936;6.908;2023-02-22T16:07:35;3.53;;;1.95;;
61096;SDS011;46977;50.936;6.908;2023-02-22T16:10:44;3.67;;;1.83;;
61096;SDS011;46977;50.936;6.908;2023-02-22T16:13:52;1.77;;;1.65;;
61096;SDS011;46977;50.936;6.908;2023-02-22T16:17:18;3.10;;;1.35;;
61096;SDS011;46977;50.936;6.908;2023-02-22T16:20:31;2.35;;;1.90;;
61096;SDS011;46977;50.936;6.908;2023-02-22T16:23:42;3.88;;;2.20;;
61096;SDS011;46977;50.936;6.908;2023-02-22T16:26:59;2.17;;;1.63;;
61096;SDS011;46977;50.936;6.908;2023-02-22T16:30:06;1.90;;;1.80;;
61096;SDS011;46977;50.936;6.908;2023-02-22T16:33:26;1.60;;;1.50;;
61096;SDS011;46977;50.936;6.908;2023-02-22T16:36:35;1.58;;;1.48;;
61096;SDS011;46977;50.936;6.908;2023-02-22T16:39:39;3.10;;;1.70;;
61096;SDS011;46977;50.936;6.908;2023-02-22T16:42:42;2.08;;;1.95;;
61096;SDS011;46977;50.936;6.908;2023-02-22T16:45:45;1.85;;;1.67;;
61096;SDS011;46977;50.936;6.908;2023-02-22T16:48:49;2.20;;;1.70;;
61096;SDS011;46977;50.936;6.908;2023-02-22T16:51:52;1.77;;;1.60;;
61096;SDS011;46977;50.936;6.908;2023-02-22T16:54:56;4.00;;;2.40;;
61096;SDS011;46977;50.936;6.908;2023-02-22T16:57:58;2.88;;;1.88;;
61096;SDS011;46977;50.936;6.908;2023-02-22T17:01:02;2.60;;;2.40;;
61096;SDS011;46977;50.936;6.908;2023-02-22T17:04:09;2.33;;;1.95;;
61096;SDS011;46977;50.936;6.908;2023-02-22T17:07:16;2.27;;;2.07;;
61096;SDS011;46977;50.936;6.908;2023-02-22T17:10:19;3.55;;;2.63;;
61096;SDS011;46977;50.936;6.908;2023-02-22T17:13:24;4.28;;;2.28;;
61096;SDS011;46977;50.936;6.908;2023-02-22T17:16:28;2.80;;;2.42;;
61096;SDS011;46977;50.936;6.908;2023-02-22T17:19:32;5.55;;;2.40;;
61096;SDS011;46977;50.936;6.908;2023-02-22T17:22:34;2.80;;;2.47;;
61096;SDS011;46977;50.936;6.908;2023-02-22T17:25:39;3.47;;;2.38;;
61096;SDS011;46977;50.936;6.908;2023-02-22T17:28:42;3.65;;;2.88;;
61096;SDS011;46977;50.936;6.908;2023-02-22T17:31:45;3.25;;;2.30;;
61096;SDS011;46977;50.936;6.908;2023-02-22T17:34:51;4.38;;;2.60;;
61096;SDS011;46977;50.936;6.908;2023-02-22T17:37:53;3.63;;;2.95;;
61096;SDS011;46977;50.936;6.908;2023-02-22T17:40:55;4.25;;;3.10;;
61096;SDS011;46977;50.936;6.908;2023-02-22T17:44:00;3.20;;;3.00;;
61096;SDS011;46977;50.936;6.908;2023-02-22T17:47:02;3.00;;;2.70;;
61096;SDS011;46977;50.936;6.908;2023-02-22T17:50:06;3.03;;;2.80;;
61096;SDS011;46977;50.936;6.908;2023-02-22T17:53:09;5.03;;;3.72;;
61096;SDS011;46977;50.936;6.908;2023-02-22T17:56:13;4.68;;;4.25;;
61096;SDS011;46977;50.936;6.908;2023-02-22T17:59:19;4.30;;;3.90;;
61096;SDS011;46977;50.936;6.908;2023-02-22T18:02:22;4.00;;;3.67;;
61096;SDS011;46977;50.936;6.908;2023-02-22T18:05:26;5.00;;;3.08;;
61096;SDS011;46977;50.936;6.908;2023-02-22T18:08:28;3.97;;;3.45;;
61096;SDS011;46977;50.936;6.908;2023-02-22T18:11:32;3.97;;;3.65;;
61096;SDS011;46977;50.936;6.908;2023-02-22T18:14:35;4.65;;;3.60;;
61096;SDS011;46977;50.936;6.908;2023-02-22T18:17:38;4.05;;;3.38;;
61096;SDS011;46977;50.936;6.908;2023-02-22T18:20:42;4.13;;;3.70;;
61096;SDS011;46977;50.936;6.908;2023-02-22T18:23:45;3.75;;;3.45;;
61096;SDS011;46977;50.936;6.908;2023-02-22T18:26:47;3.67;;;3.40;;
61096;SDS011;46977;50.936;6.908;2023-02-22T18:29:51;4.20;;;3.90;;
61096;SDS011;46977;50.936;6.908;2023-02-22T18:32:53;4.50;;;4.10;;
61096;SDS011;46977;50.936;6.908;2023-02-22T18:35:57;3.53;;;3.28;;
61096;SDS011;46977;50.936;6.908;2023-02-22T18:39:00;3.55;;;3.25;;
61096;SDS011;46977;50.936;6.908;2023-02-22T18:42:04;4.45;;;4.05;;
61096;SDS011;46977;50.936;6.908;2023-02-22T18:45:06;5.18;;;3.97;;